Time;durP1;ratioP1;P1;durP2;ratioP2;P2;SDS_P1;SDS_P2;PMS_P1;PMS_P2;Temp;Humidity;BMP_temperature;BMP_pressure;BME280_temperature;BME280_humidity;BME280_pressure;Samples;Min_cycle;Max_cycle;Signal;HPM_P1;HPM_P2
2023/01/28 00:00:28;;;;;;;4.43;3.28;;;;;;;-1.39;97.75;102219.78;5035206;28;20209;-71
2023/01/28 00:03:00;;;;;;;11.20;3.95;;;;;;;-1.57;97.83;102214.72;5047126;28;20201;-72
2023/01/28 00:05:31;;;;;;;9.15;3.95;;;;;;;-1.63;98.92;102215.94;5046514;28;20225;-72
2023/01/28 00:08:03;;;;;;;8.15;3.88;;;;;;;-1.59;98.70;102212.16;5045530;28;20209;-73
2023/01/28 00:10:38;;;;;;;6.30;3.55;;;;;;;-1.39;99.06;102217.13;5032113;28;20185;-72
2023/01/28 00:13:11;;;;;;;4.05;3.35;;;;;;;-1.60;99.37;102220.22;5034483;28;20201;-71
2023/01/28 00:15:44;;;;;;;6.68;4.15;;;;;;;-1.62;99.38;102217.66;5023975;28;20215;-73
2023/01/28 00:18:16;;;;;;;5.35;4.05;;;;;;;-1.59;99.32;102214.81;5043902;28;20221;-72
2023/01/28 00:20:59;;;;;;;5.50;4.28;;;;;;;-1.58;99.19;102224.47;5056120;28;20232;-72
2023/01/28 00:23:34;;;;;;;5.55;3.03;;;;;;;-1.69;98.64;102221.59;5037022;28;20208;-71
2023/01/28 00:26:19;;;;;;;3.63;2.45;;;;;;;-1.69;99.12;102226.91;5035974;28;20217;-72
2023/01/28 00:28:54;;;;;;;6.28;3.28;;;;;;;-1.67;98.73;102234.78;5031637;28;20228;-71
2023/01/28 00:31:26;;;;;;;4.82;2.95;;;;;;;-1.70;98.82;102227.88;5031550;28;20188;-72
2023/01/28 00:33:59;;;;;;;7.60;3.50;;;;;;;-1.67;98.72;102227.69;5054954;28;20204;-72
2023/01/28 00:36:30;;;;;;;5.57;3.15;;;;;;;-1.80;98.79;102230.22;5005082;28;20217;-71
2023/01/28 00:39:04;;;;;;;8.43;3.88;;;;;;;-1.96;99.20;102226.75;5022244;28;20213;-71
2023/01/28 00:41:38;;;;;;;9.35;3.30;;;;;;;-1.91;99.72;102221.19;5012490;28;20222;-70
2023/01/28 00:44:11;;;;;;;5.28;4.18;;;;;;;-2.08;100.00;102223.97;5013991;28;20444;-71
2023/01/28 00:46:44;;;;;;;6.32;2.80;;;;;;;-2.02;100.00;102228.91;5018176;28;20749;-71
2023/01/28 00:49:18;;;;;;;4.07;2.30;;;;;;;-1.97;100.00;102225.03;5016660;28;20193;-71
2023/01/28 00:51:50;;;;;;;8.43;4.07;;;;;;;-1.90;100.00;102222.91;5033363;28;20205;-72
2023/01/28 00:54:25;;;;;;;6.60;3.00;;;;;;;-1.90;100.00;102233.50;5002817;28;20292;-70
2023/01/28 00:56:59;;;;;;;4.68;2.67;;;;;;;-2.02;100.00;102236.84;5025130;28;20217;-70
2023/01/28 00:59:37;;;;;;;8.10;3.50;;;;;;;-2.06;100.00;102244.16;5012805;28;20552;-71
2023/01/28 01:02:15;;;;;;;8.05;3.30;;;;;;;-1.97;100.00;102237.44;5004526;28;20222;-71
2023/01/28 01:04:58;;;;;;;8.55;3.63;;;;;;;-1.51;100.00;102238.25;5017017;28;20266;-70
2023/01/28 01:07:40;;;;;;;4.75;2.65;;;;;;;-1.66;100.00;102240.03;5018287;28;20704;-71
2023/01/28 01:10:15;;;;;;;5.80;3.22;;;;;;;-1.63;100.00;102237.19;5001213;28;20202;-70
2023/01/28 01:12:52;;;;;;;11.98;3.10;;;;;;;-1.49;99.02;102239.00;5006600;28;20679;-70
2023/01/28 01:15:22;;;;;;;5.78;3.45;;;;;;;-1.48;99.72;102238.91;5013811;28;20770;-71
2023/01/28 01:17:53;;;;;;;5.35;3.38;;;;;;;-1.36;98.82;102235.53;4995089;28;20209;-71
2023/01/28 01:20:26;;;;;;;6.05;3.72;;;;;;;-1.37;98.91;102223.19;5033089;28;20189;-72
2023/01/28 01:22:57;;;;;;;5.65;3.88;;;;;;;-0.80;98.49;102233.81;5005721;28;20292;-71
2023/01/28 01:25:28;;;;;;;10.07;3.95;;;;;;;-0.88;96.05;102236.13;5023461;28;20228;-72
2023/01/28 01:28:02;;;;;;;9.98;3.85;;;;;;;-0.89;95.06;102235.25;5036440;28;20224;-70
2023/01/28 01:30:34;;;;;;;4.47;3.10;;;;;;;-0.98;94.45;102235.84;5012139;28;20676;-72
2023/01/28 01:33:09;;;;;;;5.15;3.08;;;;;;;-1.01;94.44;102232.50;5003345;28;20656;-70
2023/01/28 01:35:42;;;;;;;7.53;3.20;;;;;;;-0.95;94.37;102240.09;5025376;28;20236;-72
2023/01/28 01:38:14;;;;;;;5.80;2.70;;;;;;;-0.94;94.11;102240.00;5031913;28;20269;-71
2023/01/28 01:40:46;;;;;;;9.15;3.70;;;;;;;-0.91;94.09;102237.16;5029185;28;20281;-70
2023/01/28 01:43:24;;;;;;;4.55;3.15;;;;;;;-0.96;93.83;102241.03;5006493;28;20209;-71
2023/01/28 01:46:01;;;;;;;4.18;3.10;;;;;;;-1.02;94.07;102249.41;4995647;28;20597;-71
2023/01/28 01:48:39;;;;;;;5.53;3.38;;;;;;;-0.87;93.65;102248.44;5027793;28;20204;-72
2023/01/28 01:51:26;;;;;;;13.57;3.53;;;;;;;-0.71;93.16;102251.00;5019512;28;20190;-71
2023/01/28 01:54:00;;;;;;;5.88;4.80;;;;;;;-0.66;93.24;102252.41;5015256;28;20205;-71
2023/01/28 01:56:39;;;;;;;5.82;3.97;;;;;;;-0.50;92.70;102255.81;5025582;28;20266;-72
2023/01/28 01:59:34;;;;;;;4.45;3.00;;;;;;;-0.36;91.90;102251.41;5008142;28;20209;-71
2023/01/28 02:02:10;;;;;;;4.65;2.80;;;;;;;-0.11;91.89;102251.53;5008627;28;20308;-71
2023/01/28 02:04:44;;;;;;;7.88;3.47;;;;;;;-0.05;90.37;102253.81;5015880;28;20288;-71
2023/01/28 02:07:20;;;;;;;3.00;2.53;;;;;;;-0.28;88.80;102262.41;5020742;28;20221;-71
2023/01/28 02:09:51;;;;;;;8.23;3.55;;;;;;;-0.11;90.31;102259.53;5025728;28;20224;-71
2023/01/28 02:12:28;;;;;;;4.75;3.20;;;;;;;-0.14;90.00;102251.72;5013147;28;20283;-72
2023/01/28 02:15:07;;;;;;;3.28;2.60;;;;;;;-0.36;89.31;102254.06;5026961;28;20210;-70
2023/01/28 02:17:40;;;;;;;6.57;2.50;;;;;;;-0.39;90.33;102251.63;5026693;28;20228;-71
2023/01/28 02:20:13;;;;;;;2.65;2.33;;;;;;;-0.20;89.39;102250.34;5027179;28;20292;-70
2023/01/28 02:23:18;;;;;;;7.45;2.55;;;;;;;-0.30;88.51;102243.91;5024402;28;20216;-71
2023/01/28 02:26:18;;;;;;;5.95;2.28;;;;;;;-0.11;89.05;102251.53;4967315;28;20230;-71
2023/01/28 02:29:02;;;;;;;2.65;2.40;;;;;;;-0.05;88.73;102253.81;5016504;28;20198;-73
2023/01/28 02:31:41;;;;;;;6.05;3.15;;;;;;;0.15;88.80;102245.31;5011809;28;20583;-70
2023/01/28 02:34:20;;;;;;;4.95;2.40;;;;;;;-0.06;87.10;102252.09;5025114;28;20198;-70
2023/01/28 02:36:57;;;;;;;4.10;2.08;;;;;;;-0.26;87.39;102250.72;5012872;28;20316;-71
2023/01/28 02:39:37;;;;;;;3.05;2.33;;;;;;;-0.04;88.24;102255.47;5016606;28;20204;-71
2023/01/28 02:42:14;;;;;;;5.47;2.85;;;;;;;-0.22;87.72;102254.88;5029718;28;20217;-71
2023/01/28 02:44:49;;;;;;;2.17;1.90;;;;;;;-0.09;87.14;102260.25;5007710;28;20193;-70
2023/01/28 02:50:11;;;;;;;8.60;3.10;;;;;;;-0.26;87.50;102249.88;5015343;28;20589;-71
2023/01/28 02:56:02;;;;;;;6.50;2.83;;;;;;;-0.23;87.14;102255.84;5022508;28;20222;-71
2023/01/28 02:58:40;;;;;;;5.25;2.17;;;;;;;-0.31;88.49;102257.28;5029839;28;20222;-71
2023/01/28 03:01:27;;;;;;;3.35;3.05;;;;;;;-0.21;88.22;102255.75;5027623;28;20667;-70
2023/01/28 03:04:03;;;;;;;2.58;2.25;;;;;;;-0.18;87.00;102255.53;4992389;28;20209;-71
2023/01/28 03:06:42;;;;;;;4.50;1.90;;;;;;;-0.03;88.01;102257.19;5022782;28;20315;-72
2023/01/28 03:09:23;;;;;;;3.58;3.20;;;;;;;-0.15;86.95;102255.34;5035104;28;20598;-71
2023/01/28 03:37:59;;;;;;;2.70;1.88;;;;;;;-0.07;84.61;102255.69;5048591;28;20667;-71
2023/01/28 03:40:30;;;;;;;4.95;2.70;;;;;;;-0.16;84.44;102257.16;4996611;28;20264;-72
2023/01/28 03:43:03;;;;;;;3.67;2.20;;;;;;;-0.04;83.82;102258.16;5016195;28;20205;-70
2023/01/28 03:45:38;;;;;;;3.85;3.50;;;;;;;-0.23;83.64;102254.97;5026203;28;20234;-71
2023/01/28 03:48:10;;;;;;;5.68;3.90;;;;;;;-0.04;83.62;102256.34;5028156;28;20197;-72
2023/01/28 03:50:42;;;;;;;5.43;1.98;;;;;;;0.12;82.47;102253.53;5015388;28;20247;-73
2023/01/28 03:53:15;;;;;;;7.25;5.15;;;;;;;0.20;82.61;102261.00;5007081;28;20235;-72
2023/01/28 03:55:48;;;;;;;11.38;10.38;;;;;;;0.17;82.60;102259.41;4988427;28;20217;-72
2023/01/28 03:58:25;;;;;;;3.05;2.58;;;;;;;0.31;77.36;102248.69;5029915;28;20208;-72
2023/01/28 04:00:57;;;;;;;3.38;2.83;;;;;;;0.40;74.53;102252.53;5025462;28;20204;-71
2023/01/28 04:03:30;;;;;;;3.22;2.40;;;;;;;0.32;75.45;102239.75;5033082;28;20306;-73
2023/01/28 04:06:09;;;;;;;3.50;2.40;;;;;;;0.32;77.19;102250.38;5027230;28;20232;-70
2023/01/28 04:09:13;;;;;;;4.60;2.25;;;;;;;0.29;77.85;102253.25;5021776;28;20662;-72
2023/01/28 04:11:56;;;;;;;4.38;3.17;;;;;;;0.44;78.12;102254.00;5017560;28;20222;-72
2023/01/28 04:14:34;;;;;;;3.22;2.65;;;;;;;0.47;76.79;102248.50;5013529;28;20188;-69
2023/01/28 04:17:26;;;;;;;3.35;2.38;;;;;;;0.48;76.75;102246.69;4997624;28;20664;-71
2023/01/28 04:20:03;;;;;;;3.03;2.30;;;;;;;0.44;76.82;102252.22;5007304;28;20201;-71
2023/01/28 04:22:37;;;;;;;2.22;1.85;;;;;;;0.35;76.69;102250.16;5026349;28;20235;-71
2023/01/28 04:25:16;;;;;;;6.78;3.13;;;;;;;0.56;77.73;102252.34;5013201;28;20299;-72
2023/01/28 04:27:48;;;;;;;4.65;2.72;;;;;;;0.84;78.65;102245.00;5027988;28;20608;-71
2023/01/28 04:30:24;;;;;;;3.03;2.30;;;;;;;0.97;76.91;102239.66;5008336;28;20216;-71
2023/01/28 04:33:06;;;;;;;7.65;4.95;;;;;;;0.99;75.33;102247.56;5001958;28;20202;-70
2023/01/28 04:35:57;;;;;;;6.65;4.60;;;;;;;0.85;73.81;102257.38;5022778;28;20271;-71
2023/01/28 04:38:48;;;;;;;3.45;2.20;;;;;;;0.71;74.25;102256.63;5037649;28;20766;-70
2023/01/28 04:41:40;;;;;;;5.90;3.15;;;;;;;0.56;74.64;102260.34;5023147;28;20201;-69
2023/01/28 04:44:45;;;;;;;3.45;2.95;;;;;;;0.69;75.02;102246.06;4955801;28;20547;-72
2023/01/28 04:47:42;;;;;;;6.32;2.83;;;;;;;0.61;74.78;102252.88;4934825;29;20196;-72
2023/01/28 04:50:31;;;;;;;3.70;2.85;;;;;;;0.75;75.71;102255.44;4952140;28;20251;-71
2023/01/28 04:53:21;;;;;;;7.13;2.58;;;;;;;0.82;73.19;102246.09;4942700;29;20199;-71
2023/01/28 04:56:12;;;;;;;2.60;2.13;;;;;;;0.66;73.05;102250.75;5012730;28;20730;-70
2023/01/28 04:58:44;;;;;;;3.83;2.22;;;;;;;0.55;74.09;102246.16;5018603;28;20311;-72
2023/01/28 05:01:20;;;;;;;3.28;2.55;;;;;;;0.71;73.90;102243.31;5022759;28;20594;-71
2023/01/28 05:04:08;;;;;;;5.68;2.95;;;;;;;0.65;74.60;102249.03;5036107;28;20225;-71
2023/01/28 05:06:42;;;;;;;4.57;2.65;;;;;;;0.88;74.91;102250.97;5018897;28;20307;-70
2023/01/28 05:09:24;;;;;;;3.30;2.00;;;;;;;0.84;73.78;102261.00;5012751;28;20201;-73
2023/01/28 05:12:00;;;;;;;5.72;2.50;;;;;;;0.99;73.19;102258.22;5006887;28;20198;-72
2023/01/28 05:14:34;;;;;;;6.63;2.70;;;;;;;0.86;73.31;102256.44;5023499;28;20185;-70
2023/01/28 05:17:12;;;;;;;3.38;2.97;;;;;;;0.79;73.13;102267.59;5012383;28;20224;-71
2023/01/28 05:19:45;;;;;;;4.28;2.33;;;;;;;0.69;73.85;102264.72;5017413;28;20557;-71
2023/01/28 05:22:23;;;;;;;2.72;1.88;;;;;;;0.68;74.15;102271.00;5014809;28;20209;-70
2023/01/28 05:25:11;;;;;;;5.80;3.08;;;;;;;0.60;73.82;102277.81;5001966;28;20201;-70
2023/01/28 05:27:50;;;;;;;4.88;2.80;;;;;;;0.72;73.33;102272.53;5006034;28;20208;-70
2023/01/28 05:30:23;;;;;;;6.25;3.75;;;;;;;0.72;73.09;102277.84;5005330;28;20208;-70
2023/01/28 05:32:58;;;;;;;9.88;5.00;;;;;;;0.81;71.69;102277.22;5014563;28;20233;-71
2023/01/28 05:35:31;;;;;;;12.35;5.13;;;;;;;0.79;71.00;102270.25;5033079;28;20221;-72
2023/01/28 05:38:01;;;;;;;8.77;5.30;;;;;;;0.70;71.58;102279.75;5014049;28;20757;-70
2023/01/28 05:40:34;;;;;;;14.20;5.70;;;;;;;0.79;72.91;102267.59;5003561;28;20198;-71
2023/01/28 05:43:10;;;;;;;11.27;5.50;;;;;;;0.88;70.94;102264.28;5022666;28;20206;-72
2023/01/28 05:45:47;;;;;;;7.85;4.72;;;;;;;0.96;71.87;102277.09;5015995;28;20228;-72
2023/01/28 05:48:23;;;;;;;9.52;5.43;;;;;;;1.04;70.32;102270.28;5012939;28;20618;-71
2023/01/28 05:51:22;;;;;;;9.13;5.25;;;;;;;0.96;71.03;102274.44;4989859;28;20202;-71
2023/01/28 05:53:57;;;;;;;8.80;4.85;;;;;;;1.05;70.24;102274.66;5021043;28;20185;-70
2023/01/28 05:56:27;;;;;;;9.13;4.85;;;;;;;0.92;71.26;102271.13;5024268;28;20244;-71
2023/01/28 05:59:01;;;;;;;8.55;4.55;;;;;;;0.94;72.16;102282.53;5016035;28;20212;-71
2023/01/28 06:01:33;;;;;;;9.32;4.68;;;;;;;0.93;70.77;102278.16;5013609;28;20256;-70
2023/01/28 06:04:07;;;;;;;10.30;5.22;;;;;;;0.86;71.10;102274.22;5010901;28;20640;-71
2023/01/28 06:06:38;;;;;;;11.00;5.30;;;;;;;0.91;71.75;102277.44;5022122;28;20267;-71
2023/01/28 06:09:11;;;;;;;7.75;4.95;;;;;;;0.91;70.65;102266.75;5034879;28;20190;-71
2023/01/28 06:11:44;;;;;;;7.45;4.40;;;;;;;0.83;70.11;102269.09;5000070;28;20711;-70
2023/01/28 06:14:18;;;;;;;8.02;5.22;;;;;;;0.75;71.03;102272.28;5031980;28;20193;-69
2023/01/28 06:17:08;;;;;;;9.00;4.78;;;;;;;0.85;70.23;102280.50;5003210;28;20318;-72
2023/01/28 06:19:56;;;;;;;6.13;4.40;;;;;;;0.75;70.96;102282.09;5031706;28;20204;-71
2023/01/28 06:22:29;;;;;;;6.15;4.30;;;;;;;0.71;71.07;102277.94;5022079;28;20269;-72
2023/01/28 06:25:00;;;;;;;7.22;4.72;;;;;;;0.91;70.21;102288.09;5013196;28;20205;-72
2023/01/28 06:27:31;;;;;;;6.22;3.42;;;;;;;0.90;68.90;102289.03;5051231;28;20324;-71
2023/01/28 06:30:07;;;;;;;6.82;3.65;;;;;;;0.94;68.98;102287.88;5057827;28;20193;-71
2023/01/28 06:32:38;;;;;;;5.68;3.90;;;;;;;0.82;69.72;102286.88;5048804;28;20198;-71
2023/01/28 06:35:10;;;;;;;6.10;3.80;;;;;;;0.80;70.26;102280.81;5030674;28;20668;-71
2023/01/28 06:37:44;;;;;;;5.00;3.97;;;;;;;0.91;70.12;102289.91;5023886;28;20197;-70
2023/01/28 06:40:14;;;;;;;8.95;4.35;;;;;;;0.85;70.55;102289.38;5018740;28;20194;-70
2023/01/28 06:42:46;;;;;;;6.28;3.83;;;;;;;0.98;72.66;102288.50;5035995;28;20749;-70
2023/01/28 06:45:23;;;;;;;7.10;4.10;;;;;;;0.99;70.70;102293.72;5030893;28;20205;-70
2023/01/28 06:47:56;;;;;;;5.32;3.63;;;;;;;1.16;71.47;102292.56;5015841;28;20201;-70
2023/01/28 06:50:28;;;;;;;5.72;3.25;;;;;;;0.97;71.10;102294.81;5012155;28;20297;-71
2023/01/28 06:53:02;;;;;;;8.55;4.75;;;;;;;1.07;71.11;102301.19;5028930;28;20600;-70
2023/01/28 06:55:35;;;;;;;7.95;4.20;;;;;;;1.18;71.35;102294.16;5029991;28;20221;-71
2023/01/28 06:58:06;;;;;;;6.68;3.53;;;;;;;1.24;70.44;102299.06;5022980;28;20209;-71
2023/01/28 07:00:39;;;;;;;8.38;4.50;;;;;;;1.35;70.53;102300.13;5034295;28;20193;-73
2023/01/28 07:03:13;;;;;;;6.55;3.60;;;;;;;1.12;70.18;102297.25;5009200;28;20220;-72
2023/01/28 07:05:45;;;;;;;9.07;3.83;;;;;;;1.08;70.96;102298.41;5029769;28;20221;-71
2023/01/28 07:08:16;;;;;;;12.27;4.22;;;;;;;1.14;71.12;102300.66;5027464;28;20201;-71
2023/01/28 07:10:48;;;;;;;4.40;2.65;;;;;;;1.06;69.87;102297.69;5007996;28;20563;-71
2023/01/28 07:13:18;;;;;;;3.42;2.15;;;;;;;1.12;68.90;102297.25;5002833;28;20228;-70
2023/01/28 07:15:51;;;;;;;5.40;2.70;;;;;;;1.04;69.18;102299.59;5016504;28;20230;-70
2023/01/28 07:18:23;;;;;;;4.25;2.33;;;;;;;1.01;69.49;102304.31;5026713;28;20197;-70
2023/01/28 07:20:53;;;;;;;4.20;2.53;;;;;;;1.08;68.96;102306.41;5030280;28;20194;-70
2023/01/28 07:23:24;;;;;;;4.28;3.08;;;;;;;1.13;68.14;102303.44;5026172;28;20205;-69
2023/01/28 07:26:02;;;;;;;7.03;4.28;;;;;;;1.05;69.14;102306.66;5028338;28;20232;-73
2023/01/28 07:28:32;;;;;;;14.65;9.88;;;;;;;1.34;69.78;102304.59;5024105;28;20209;-70
2023/01/28 07:31:07;;;;;;;4.97;3.47;;;;;;;1.28;68.71;102299.69;5036339;28;20255;-70
2023/01/28 07:33:40;;;;;;;5.28;2.70;;;;;;;1.26;68.85;102305.13;5023888;28;20212;-69
2023/01/28 07:36:12;;;;;;;11.13;9.18;;;;;;;1.23;68.27;102304.50;5035424;28;20209;-71
2023/01/28 07:38:47;;;;;;;6.28;4.82;;;;;;;1.40;68.75;102300.66;5010460;28;20193;-70
2023/01/28 07:41:24;;;;;;;4.65;3.78;;;;;;;1.33;68.85;102294.03;5018886;28;20197;-73
2023/01/28 07:43:59;;;;;;;2.40;2.20;;;;;;;1.39;68.88;102293.59;5006880;28;20260;-71
2023/01/28 07:46:33;;;;;;;6.43;4.45;;;;;;;1.57;67.94;102302.97;5037084;28;20286;-71
2023/01/28 07:49:05;;;;;;;6.63;2.85;;;;;;;1.33;67.60;102299.38;5016675;28;20193;-71
2023/01/28 07:51:37;;;;;;;8.43;6.47;;;;;;;1.36;68.28;102310.66;5014533;28;20200;-70
2023/01/28 07:54:09;;;;;;;2.85;1.92;;;;;;;1.36;66.29;102307.13;5004586;28;20201;-71
2023/01/28 07:56:40;;;;;;;5.45;4.40;;;;;;;1.47;66.40;102297.44;5027439;28;20221;-70
2023/01/28 07:59:11;;;;;;;4.30;2.20;;;;;;;1.37;66.34;102298.19;5022366;28;20231;-70
2023/01/28 08:01:45;;;;;;;4.47;2.78;;;;;;;1.38;66.09;102303.41;5033822;28;20190;-71
2023/01/28 08:04:18;;;;;;;9.20;8.40;;;;;;;1.42;65.75;102301.38;5018079;28;20249;-71
2023/01/28 08:06:51;;;;;;;2.80;1.90;;;;;;;1.38;64.82;102310.56;4980794;28;20222;-71
2023/01/28 08:09:21;;;;;;;4.88;3.38;;;;;;;1.34;65.81;102312.59;5012758;28;20231;-71
2023/01/28 08:11:54;;;;;;;2.97;2.00;;;;;;;1.56;65.93;102312.78;5009806;28;20280;-70
2023/01/28 08:14:25;;;;;;;3.67;1.90;;;;;;;1.59;64.91;102322.38;5003902;28;20198;-73
2023/01/28 08:16:58;;;;;;;4.57;2.55;;;;;;;1.72;64.98;102318.72;4996515;28;20240;-69
2023/01/28 08:19:29;;;;;;;8.25;4.03;;;;;;;1.87;65.14;102322.09;5009427;28;20746;-73
2023/01/28 08:22:02;;;;;;;2.53;1.65;;;;;;;1.89;64.07;102324.69;5033566;28;20208;-71
2023/01/28 08:24:37;;;;;;;12.55;6.35;;;;;;;1.86;64.00;102324.88;5024628;28;20204;-73
2023/01/28 08:27:07;;;;;;;2.65;2.20;;;;;;;1.76;63.54;102327.34;4999097;28;20221;-72
2023/01/28 08:29:42;;;;;;;8.32;2.67;;;;;;;1.75;64.11;102329.16;5030018;28;20194;-74
2023/01/28 08:32:14;;;;;;;4.85;2.00;;;;;;;2.11;64.39;102335.47;5038685;28;20291;-71
2023/01/28 08:34:45;;;;;;;4.47;2.55;;;;;;;2.18;64.78;102337.56;5021768;28;20212;-72
2023/01/28 08:37:15;;;;;;;3.72;2.60;;;;;;;2.25;63.40;102347.81;5034086;28;20213;-70
2023/01/28 08:39:46;;;;;;;3.83;1.90;;;;;;;2.13;62.66;102345.06;5004881;28;20565;-70
2023/01/28 08:42:18;;;;;;;4.05;1.85;;;;;;;2.03;63.25;102336.03;5034650;28;20257;-70
2023/01/28 08:44:48;;;;;;;3.03;2.00;;;;;;;1.99;63.74;102353.25;5029400;28;20188;-71
2023/01/28 08:47:23;;;;;;;2.60;1.50;;;;;;;2.01;62.55;102345.13;5031934;28;20296;-73
2023/01/28 08:49:53;;;;;;;2.75;2.42;;;;;;;1.93;62.96;102344.84;5043333;28;20205;-75
2023/01/28 08:52:25;;;;;;;2.67;2.40;;;;;;;1.88;63.81;102342.50;5023885;28;20602;-71
2023/01/28 08:54:55;;;;;;;4.57;1.90;;;;;;;2.01;63.01;102345.97;5051630;28;20199;-73
2023/01/28 08:57:25;;;;;;;2.95;1.60;;;;;;;2.10;62.49;102353.31;5041070;28;20228;-74
2023/01/28 08:59:56;;;;;;;3.92;1.80;;;;;;;2.13;61.95;102357.59;5030176;28;20217;-71
2023/01/28 09:02:31;;;;;;;12.38;11.52;;;;;;;2.08;61.24;102352.56;5050924;28;20185;-71
2023/01/28 09:05:01;;;;;;;3.05;2.63;;;;;;;2.08;60.91;102359.75;5043330;28;20293;-71
2023/01/28 09:07:32;;;;;;;1.38;1.25;;;;;;;2.18;60.66;102361.63;5005612;28;20205;-71
2023/01/28 09:10:03;;;;;;;2.20;1.38;;;;;;;2.27;60.72;102365.44;5033950;28;20189;-72
2023/01/28 09:12:34;;;;;;;4.25;1.15;;;;;;;2.22;59.71;102364.09;5021642;28;20205;-72
2023/01/28 09:15:09;;;;;;;3.40;1.38;;;;;;;2.28;60.29;102363.59;5028643;28;20194;-72
2023/01/28 09:17:41;;;;;;;2.83;1.45;;;;;;;2.22;60.94;102370.28;5037141;28;20218;-72
2023/01/28 09:20:13;;;;;;;1.90;1.30;;;;;;;2.38;60.39;102378.00;5035527;28;20228;-71
2023/01/28 09:22:44;;;;;;;3.45;1.73;;;;;;;2.38;60.55;102380.66;5048926;28;20178;-71
2023/01/28 09:25:15;;;;;;;3.25;2.00;;;;;;;2.35;60.49;102386.25;5033879;28;20208;-70
2023/01/28 09:27:46;;;;;;;2.55;1.52;;;;;;;2.44;60.37;102386.41;5037539;28;20216;-71
2023/01/28 09:30:19;;;;;;;4.60;1.25;;;;;;;2.47;59.46;102374.66;5038549;28;20212;-70
2023/01/28 09:32:54;;;;;;;2.95;1.50;;;;;;;2.37;59.94;102379.00;5021830;28;20285;-71
2023/01/28 09:35:25;;;;;;;1.80;1.40;;;;;;;2.32;60.36;102387.34;5019076;28;20197;-73
2023/01/28 09:37:59;;;;;;;3.20;1.30;;;;;;;2.15;61.50;102391.22;5030078;28;20205;-71
2023/01/28 09:40:37;;;;;;;3.55;1.38;;;;;;;2.19;60.44;102384.69;5036171;28;20177;-71
2023/01/28 09:43:40;;;;;;;2.00;1.20;;;;;;;2.35;59.56;102386.25;5027127;28;20205;-70
2023/01/28 09:46:17;;;;;;;3.47;1.20;;;;;;;2.30;59.92;102399.94;5009685;28;20229;-70
2023/01/28 09:48:52;;;;;;;3.72;1.85;;;;;;;2.32;60.04;102391.81;5019112;28;20207;-70
2023/01/28 09:51:34;;;;;;;3.25;1.35;;;;;;;2.31;59.88;102385.63;5009874;28;20197;-71
2023/01/28 09:54:15;;;;;;;2.50;1.52;;;;;;;2.29;59.73;102386.69;5018999;28;20197;-71
2023/01/28 09:56:54;;;;;;;2.05;1.25;;;;;;;2.32;60.07;102397.16;5028809;28;20221;-73
2023/01/28 09:59:28;;;;;;;1.67;1.20;;;;;;;2.28;60.54;102401.88;5018562;28;20236;-71
2023/01/28 10:02:05;;;;;;;2.28;1.40;;;;;;;2.42;60.43;102403.56;5014382;28;20280;-71
2023/01/28 10:04:52;;;;;;;2.20;1.08;;;;;;;2.49;59.88;102394.09;5018605;28;20197;-73
2023/01/28 10:07:36;;;;;;;3.90;1.30;;;;;;;2.39;59.72;102383.25;5016843;28;20718;-70
2023/01/28 10:10:13;;;;;;;3.00;1.30;;;;;;;2.43;59.85;102392.72;5011504;28;20293;-69
2023/01/28 10:13:08;;;;;;;1.50;1.00;;;;;;;2.37;60.29;102389.69;5019441;28;20208;-72
2023/01/28 10:16:12;;;;;;;2.92;1.92;;;;;;;2.37;59.86;102387.00;5022168;28;20708;-73
2023/01/28 10:18:47;;;;;;;4.75;2.40;;;;;;;2.67;60.06;102376.69;5040124;28;20635;-72
2023/01/28 10:21:24;;;;;;;3.58;1.05;;;;;;;2.70;58.49;102386.31;5032006;28;20268;-71
2023/01/28 10:24:02;;;;;;;1.95;1.30;;;;;;;2.77;58.89;102383.03;5012105;28;20216;-71
2023/01/28 10:26:38;;;;;;;2.63;1.52;;;;;;;2.59;58.93;102374.59;5032505;28;20233;-71
2023/01/28 10:29:15;;;;;;;1.80;1.00;;;;;;;2.58;58.43;102370.22;5035586;28;20201;-72
2023/01/28 10:31:53;;;;;;;2.65;1.45;;;;;;;2.62;58.83;102373.50;5014974;28;20215;-72
2023/01/28 10:34:26;;;;;;;8.43;2.17;;;;;;;2.81;58.89;102371.16;5032028;28;20200;-70
2023/01/28 10:37:02;;;;;;;2.85;2.25;;;;;;;2.95;59.04;102370.94;5010064;28;20213;-70
2023/01/28 10:39:35;;;;;;;2.03;1.15;;;;;;;2.65;58.16;102373.28;5015151;28;20239;-72
2023/01/28 10:42:23;;;;;;;1.40;0.85;;;;;;;2.54;58.46;102367.88;5030882;28;20229;-72
2023/01/28 10:44:55;;;;;;;3.38;2.17;;;;;;;2.42;59.49;102366.13;5018647;28;20236;-72
2023/01/28 10:47:33;;;;;;;2.22;1.35;;;;;;;2.63;60.08;102372.53;5014624;28;20222;-71
2023/01/28 10:50:05;;;;;;;2.78;2.10;;;;;;;2.71;59.33;102366.63;5028700;28;20284;-72
2023/01/28 10:52:38;;;;;;;4.22;1.90;;;;;;;2.81;58.37;102367.66;5013724;28;20548;-72
2023/01/28 10:55:15;;;;;;;2.20;1.20;;;;;;;2.60;58.55;102364.75;5014824;28;20224;-70
2023/01/28 10:57:46;;;;;;;2.85;1.42;;;;;;;2.62;59.27;102369.00;5028352;28;20236;-72
2023/01/28 11:00:29;;;;;;;3.30;1.13;;;;;;;2.78;58.70;102371.38;5005837;28;20198;-72
2023/01/28 11:02:59;;;;;;;3.45;1.50;;;;;;;2.76;58.27;102370.63;5015271;28;20278;-72
2023/01/28 11:05:32;;;;;;;1.58;1.42;;;;;;;2.76;58.00;102367.97;5006889;28;20633;-72
2023/01/28 11:08:29;;;;;;;2.30;1.55;;;;;;;2.69;58.10;102364.06;5008823;28;20206;-72
2023/01/28 11:11:00;;;;;;;4.47;1.70;;;;;;;2.58;58.90;102361.34;5028796;28;20205;-73
2023/01/28 11:13:31;;;;;;;4.40;0.95;;;;;;;2.39;59.37;102361.00;5032014;28;20737;-72
2023/01/28 11:16:05;;;;;;;4.30;1.50;;;;;;;2.50;60.07;102363.75;5033096;28;20281;-72
2023/01/28 11:18:42;;;;;;;2.13;1.45;;;;;;;2.51;59.42;102366.31;5022098;28;20215;-71
2023/01/28 11:21:20;;;;;;;3.50;1.42;;;;;;;2.65;59.11;102362.59;5030681;28;20209;-72
2023/01/28 11:23:57;;;;;;;2.35;1.38;;;;;;;2.60;59.85;102354.06;5011595;28;20652;-72
2023/01/28 11:26:31;;;;;;;1.77;1.08;;;;;;;2.67;60.00;102357.97;5017477;28;20558;-72
2023/01/28 11:29:03;;;;;;;2.30;1.50;;;;;;;2.58;59.90;102356.84;5020582;28;20202;-72
2023/01/28 11:31:45;;;;;;;1.10;0.70;;;;;;;2.67;60.02;102355.28;5024054;28;20197;-71
2023/01/28 11:34:22;;;;;;;1.90;1.08;;;;;;;2.55;60.72;102350.88;5016549;28;20201;-71
2023/01/28 11:36:55;;;;;;;3.65;1.67;;;;;;;2.50;61.29;102347.72;5009631;28;20224;-71
2023/01/28 11:39:32;;;;;;;1.73;1.20;;;;;;;2.67;62.57;102352.63;5020241;28;20213;-69
2023/01/28 11:42:17;;;;;;;4.93;2.13;;;;;;;2.78;63.25;102341.13;5029367;28;20197;-71
2023/01/28 11:44:49;;;;;;;5.20;1.70;;;;;;;2.74;64.03;102342.34;5016194;28;20569;-72
2023/01/28 11:47:32;;;;;;;3.50;1.92;;;;;;;2.76;64.91;102333.22;5016455;28;20228;-70
2023/01/28 11:50:30;;;;;;;7.82;1.67;;;;;;;2.83;64.88;102329.13;5025322;28;20228;-71
2023/01/28 11:53:39;;;;;;;4.10;2.50;;;;;;;3.14;64.76;102338.31;5015990;28;20667;-70
2023/01/28 11:56:34;;;;;;;1.90;1.50;;;;;;;2.94;65.39;102331.81;4988744;28;20213;-70
2023/01/28 11:59:32;;;;;;;3.80;1.65;;;;;;;2.91;65.53;102329.38;5017207;28;20212;-71
2023/01/28 12:02:18;;;;;;;1.60;1.25;;;;;;;3.01;65.46;102327.69;5028150;28;20209;-71
2023/01/28 12:05:18;;;;;;;3.67;1.30;;;;;;;2.95;65.51;102330.84;5005208;28;20197;-71
2023/01/28 12:08:03;;;;;;;1.63;1.30;;;;;;;2.81;66.51;102331.03;5020329;28;20227;-70
2023/01/28 12:10:49;;;;;;;1.42;1.25;;;;;;;2.89;66.12;102325.97;5006847;28;20681;-72
2023/01/28 12:13:37;;;;;;;3.75;1.33;;;;;;;2.94;66.25;102326.47;5009582;28;20193;-70
2023/01/28 12:16:25;;;;;;;3.38;2.05;;;;;;;2.97;65.80;102320.88;5021106;28;20216;-72
2023/01/28 12:19:24;;;;;;;2.90;2.03;;;;;;;2.88;66.73;102324.28;5011371;28;20583;-74
2023/01/28 12:22:37;;;;;;;3.25;1.60;;;;;;;3.13;66.03;102314.34;5033549;28;20296;-73
2023/01/28 12:25:29;;;;;;;4.47;2.65;;;;;;;3.06;65.76;102320.16;5018046;28;20201;-70
2023/01/28 12:28:11;;;;;;;5.80;2.17;;;;;;;3.01;66.32;102317.00;5005761;28;20215;-73
2023/01/28 12:31:01;;;;;;;13.30;1.90;;;;;;;3.01;65.58;102321.50;5016411;28;20194;-72
2023/01/28 12:33:53;;;;;;;2.25;1.70;;;;;;;2.87;65.49;102324.38;5012168;28;20256;-71
2023/01/28 12:36:41;;;;;;;4.63;2.72;;;;;;;2.82;65.77;102316.72;5000870;28;20252;-70
2023/01/28 12:39:24;;;;;;;6.90;3.80;;;;;;;2.93;66.44;102314.06;5029396;28;20686;-72
2023/01/28 12:42:03;;;;;;;3.08;2.42;;;;;;;2.97;66.05;102320.03;5014346;28;20694;-71
2023/01/28 12:44:41;;;;;;;4.35;1.85;;;;;;;2.67;66.00;102312.53;4999413;28;20209;-71
2023/01/28 12:47:19;;;;;;;6.30;2.55;;;;;;;2.84;66.19;102304.09;5023631;28;20271;-71